sensor_id;sensor_type;location;lat;lon;timestamp;pressure;altitude;pressure_sealevel;temperature;humidity
68489;BME280;55481;48.764;8.936;2022-12-07T00:01:33;96980;;;2.9;87
68489;BME280;55481;48.764;8.936;2022-12-07T00:04:03;96990;;;2.9;87
68489;BME280;55481;48.764;8.936;2022-12-07T00:06:34;96990;;;2.8;87
68489;BME280;55481;48.764;8.936;2022-12-07T00:09:04;96990;;;2.9;87
68489;BME280;55481;48.764;8.936;2022-12-07T00:11:34;96980;;;2.9;87
68489;BME280;55481;48.764;8.936;2022-12-07T00:14:07;96980;;;2.9;87
68489;BME280;55481;48.764;8.936;2022-12-07T00:26:47;96980;;;2.9;87
68489;BME280;55481;48.764;8.936;2022-12-07T00:29:18;96980;;;2.8;87.5
68489;BME280;55481;48.764;8.936;2022-12-07T00:31:48;96980;;;2.7;87.5
68489;BME280;55481;48.764;8.936;2022-12-07T00:36:43;96970;;;2.7;87.5
68489;BME280;55481;48.764;8.936;2022-12-07T00:39:17;96970;;;2.7;87.5
68489;BME280;55481;48.764;8.936;2022-12-07T00:44:15;96970;;;2.7;87.5
68489;BME280;55481;48.764;8.936;2022-12-07T00:51:48;96970;;;2.7;87.5
68489;BME280;55481;48.764;8.936;2022-12-07T00:54:18;96980;;;2.6;87.5
68489;BME280;55481;48.764;8.936;2022-12-07T00:56:49;96980;;;2.7;87.5
68489;BME280;55481;48.764;8.936;2022-12-07T01:02:03;96980;;;2.6;88
68489;BME280;55481;48.764;8.936;2022-12-07T01:04:33;96980;;;2.7;87.5
68489;BME280;55481;48.764;8.936;2022-12-07T01:09:35;96980;;;2.6;87.5
68489;BME280;55481;48.764;8.936;2022-12-07T01:11:59;96980;;;2.5;87.5
68489;BME280;55481;48.764;8.936;2022-12-07T01:14:29;96980;;;2.5;87.5
68489;BME280;55481;48.764;8.936;2022-12-07T01:17:07;96980;;;2.5;87.5
68489;BME280;55481;48.764;8.936;2022-12-07T01:19:38;96980;;;2.4;87.5
68489;BME280;55481;48.764;8.936;2022-12-07T01:27:10;96990;;;2.4;88
68489;BME280;55481;48.764;8.936;2022-12-07T01:29:40;96990;;;2.6;88
68489;BME280;55481;48.764;8.936;2022-12-07T01:34:35;96990;;;2.6;88
68489;BME280;55481;48.764;8.936;2022-12-07T01:37:06;96990;;;2.7;88
68489;BME280;55481;48.764;8.936;2022-12-07T01:39:36;96990;;;2.6;87.5
68489;BME280;55481;48.764;8.936;2022-12-07T01:47:02;97000;;;2.4;88
68489;BME280;55481;48.764;8.936;2022-12-07T01:49:33;97000;;;2.7;88
68489;BME280;55481;48.764;8.936;2022-12-07T01:52:08;97000;;;2.8;87.5
68489;BME280;55481;48.764;8.936;2022-12-07T01:57:04;96990;;;2.4;87.5
68489;BME280;55481;48.764;8.936;2022-12-07T01:59:36;96990;;;2.4;87.5
68489;BME280;55481;48.764;8.936;2022-12-07T02:02:16;96990;;;2.3;88
68489;BME280;55481;48.764;8.936;2022-12-07T02:04:44;97000;;;2.3;88
68489;BME280;55481;48.764;8.936;2022-12-07T02:07:15;97000;;;2.3;88
68489;BME280;55481;48.764;8.936;2022-12-07T02:14:40;97000;;;2.3;88
68489;BME280;55481;48.764;8.936;2022-12-07T02:17:13;97000;;;2.3;88
68489;BME280;55481;48.764;8.936;2022-12-07T02:20:00;97000;;;2.4;88
68489;BME280;55481;48.764;8.936;2022-12-07T02:25:52;96990;;;2.4;87.5
68489;BME280;55481;48.764;8.936;2022-12-07T02:29:58;96990;;;2.4;87.5
68489;BME280;55481;48.764;8.936;2022-12-07T02:32:31;96980;;;2.3;87.5
68489;BME280;55481;48.764;8.936;2022-12-07T02:37:26;96980;;;2.3;87.5
68489;BME280;55481;48.764;8.936;2022-12-07T02:39:55;96980;;;2.4;87.5
68489;BME280;55481;48.764;8.936;2022-12-07T02:42:33;96980;;;2.4;87.5
68489;BME280;55481;48.764;8.936;2022-12-07T02:52:33;96980;;;2.2;87.5
68489;BME280;55481;48.764;8.936;2022-12-07T02:55:04;96980;;;2.1;87.5
68489;BME280;55481;48.764;8.936;2022-12-07T02:57:40;96980;;;2.1;88
68489;BME280;55481;48.764;8.936;2022-12-07T03:00:11;96970;;;2.2;88
68489;BME280;55481;48.764;8.936;2022-12-07T03:05:32;96970;;;2.1;88
68489;BME280;55481;48.764;8.936;2022-12-07T03:10:17;96960;;;2.1;88
68489;BME280;55481;48.764;8.936;2022-12-07T03:17:33;96970;;;2.2;87.5
68489;BME280;55481;48.764;8.936;2022-12-07T03:20:04;96960;;;2.1;88
68489;BME280;55481;48.764;8.936;2022-12-07T03:22:35;96960;;;2.1;88
68489;BME280;55481;48.764;8.936;2022-12-07T03:25:07;96960;;;2.1;88
68489;BME280;55481;48.764;8.936;2022-12-07T03:27:39;96960;;;2.2;88
68489;BME280;55481;48.764;8.936;2022-12-07T03:30:08;96960;;;2.2;87.5
68489;BME280;55481;48.764;8.936;2022-12-07T03:32:40;96960;;;2.1;87.5
68489;BME280;55481;48.764;8.936;2022-12-07T03:35:26;96950;;;2.1;87.5
68489;BME280;55481;48.764;8.936;2022-12-07T03:37:50;96950;;;2.1;87.5
68489;BME280;55481;48.764;8.936;2022-12-07T03:40:35;96950;;;2.1;88
68489;BME280;55481;48.764;8.936;2022-12-07T03:45:14;96960;;;2.3;88
68489;BME280;55481;48.764;8.936;2022-12-07T03:47:47;96960;;;2.2;87.5
68489;BME280;55481;48.764;8.936;2022-12-07T03:50:21;96960;;;2.1;87.5
68489;BME280;55481;48.764;8.936;2022-12-07T03:52:53;96950;;;2.1;87.5
68489;BME280;55481;48.764;8.936;2022-12-07T03:55:19;96950;;;2.1;87.5
68489;BME280;55481;48.764;8.936;2022-12-07T03:57:49;96950;;;2.1;87.5
68489;BME280;55481;48.764;8.936;2022-12-07T04:00:19;96950;;;2.2;88
68489;BME280;55481;48.764;8.936;2022-12-07T04:02:51;96950;;;2.3;87.5
68489;BME280;55481;48.764;8.936;2022-12-07T04:05:21;96950;;;2.3;87.5
68489;BME280;55481;48.764;8.936;2022-12-07T04:10:29;96950;;;2.3;87
68489;BME280;55481;48.764;8.936;2022-12-07T04:15:25;96950;;;2;87
68489;BME280;55481;48.764;8.936;2022-12-07T04:17:56;96950;;;2.1;87.5
68489;BME280;55481;48.764;8.936;2022-12-07T04:23:04;96950;;;2;87.5
68489;BME280;55481;48.764;8.936;2022-12-07T04:25:34;96950;;;2;87.5
68489;BME280;55481;48.764;8.936;2022-12-07T04:31:51;96940;;;2;87.5
68489;BME280;55481;48.764;8.936;2022-12-07T04:34:10;96930;;;2.3;87.5
68489;BME280;55481;48.764;8.936;2022-12-07T04:36:41;96930;;;2.2;87.5
68489;BME280;55481;48.764;8.936;2022-12-07T04:39:17;96920;;;2.1;87
68489;BME280;55481;48.764;8.936;2022-12-07T04:41:42;96910;;;1.8;87
68489;BME280;55481;48.764;8.936;2022-12-07T04:44:14;96910;;;1.7;86.5
68489;BME280;55481;48.764;8.936;2022-12-07T04:51:58;96900;;;1.5;87
68489;BME280;55481;48.764;8.936;2022-12-07T04:59:24;96900;;;1.7;87
68489;BME280;55481;48.764;8.936;2022-12-07T05:04:32;96910;;;1.7;87.5
68489;BME280;55481;48.764;8.936;2022-12-07T05:07:03;96900;;;1.6;87
68489;BME280;55481;48.764;8.936;2022-12-07T05:11:57;96900;;;1.5;87
68489;BME280;55481;48.764;8.936;2022-12-07T05:14:28;96910;;;1.4;87
68489;BME280;55481;48.764;8.936;2022-12-07T05:17:05;96920;;;1.3;86.5
68489;BME280;55481;48.764;8.936;2022-12-07T05:19:37;96930;;;1.3;86.5
68489;BME280;55481;48.764;8.936;2022-12-07T05:27:09;96930;;;1.2;86.5
68489;BME280;55481;48.764;8.936;2022-12-07T05:29:39;96930;;;1.2;86.5
68489;BME280;55481;48.764;8.936;2022-12-07T05:34:33;96930;;;1;86.5
68489;BME280;55481;48.764;8.936;2022-12-07T05:37:04;96930;;;0.9;87
68489;BME280;55481;48.764;8.936;2022-12-07T05:39:35;96930;;;0.8;87
68489;BME280;55481;48.764;8.936;2022-12-07T05:49:31;96930;;;0.6;87.5
68489;BME280;55481;48.764;8.936;2022-12-07T05:52:02;96930;;;0.6;87.5
68489;BME280;55481;48.764;8.936;2022-12-07T05:54:32;96940;;;0.6;87.5
68489;BME280;55481;48.764;8.936;2022-12-07T05:57:03;96940;;;0.8;88
68489;BME280;55481;48.764;8.936;2022-12-07T05:59:41;96940;;;1;88
68489;BME280;55481;48.764;8.936;2022-12-07T06:02:13;96930;;;0.9;87.5
68489;BME280;55481;48.764;8.936;2022-12-07T06:04:44;96930;;;0.9;87.5
68489;BME280;55481;48.764;8.936;2022-12-07T06:07:20;96930;;;0.8;87.5
68489;BME280;55481;48.764;8.936;2022-12-07T06:09:47;96930;;;0.8;87.5
68489;BME280;55481;48.764;8.936;2022-12-07T06:17:10;96930;;;1;88
68489;BME280;55481;48.764;8.936;2022-12-07T06:19:41;96930;;;1.1;88
68489;BME280;55481;48.764;8.936;2022-12-07T06:29:44;96950;;;1.2;87
68489;BME280;55481;48.764;8.936;2022-12-07T06:32:21;96950;;;1.2;87.5
68489;BME280;55481;48.764;8.936;2022-12-07T06:34:52;96940;;;1.1;87.5
68489;BME280;55481;48.764;8.936;2022-12-07T06:37:23;96950;;;1.1;87.5
68489;BME280;55481;48.764;8.936;2022-12-07T06:44:48;96950;;;1.3;87.5
68489;BME280;55481;48.764;8.936;2022-12-07T06:50:03;96950;;;1.2;87.5
68489;BME280;55481;48.764;8.936;2022-12-07T06:52:33;96950;;;1.2;87.5
68489;BME280;55481;48.764;8.936;2022-12-07T06:54:56;96950;;;1.4;88
68489;BME280;55481;48.764;8.936;2022-12-07T06:57:28;96940;;;1.4;87.5
68489;BME280;55481;48.764;8.936;2022-12-07T06:59:59;96940;;;1.4;87.5
68489;BME280;55481;48.764;8.936;2022-12-07T07:02:34;96950;;;1.4;87.5
68489;BME280;55481;48.764;8.936;2022-12-07T07:05:01;96940;;;1.5;87.5
68489;BME280;55481;48.764;8.936;2022-12-07T07:07:41;96940;;;1.6;87.5
68489;BME280;55481;48.764;8.936;2022-12-07T07:10:09;96940;;;1.5;87.5
68489;BME280;55481;48.764;8.936;2022-12-07T07:15:05;96940;;;1.6;87.5
68489;BME280;55481;48.764;8.936;2022-12-07T07:17:35;96940;;;1.6;87.5
68489;BME280;55481;48.764;8.936;2022-12-07T07:22:45;96940;;;1.7;87.5
68489;BME280;55481;48.764;8.936;2022-12-07T07:27:39;96940;;;1.7;87.5
68489;BME280;55481;48.764;8.936;2022-12-07T07:30:11;96940;;;1.8;87.5
68489;BME280;55481;48.764;8.936;2022-12-07T07:32:42;96950;;;1.9;87.5
68489;BME280;55481;48.764;8.936;2022-12-07T07:35:13;96960;;;2;87.5
68489;BME280;55481;48.764;8.936;2022-12-07T07:37:44;96950;;;1.9;87.5
68489;BME280;55481;48.764;8.936;2022-12-07T07:40:14;96950;;;1.8;87.5
68489;BME280;55481;48.764;8.936;2022-12-07T07:42:47;96950;;;1.8;87.5
68489;BME280;55481;48.764;8.936;2022-12-07T07:45:17;96950;;;1.8;87.5
68489;BME280;55481;48.764;8.936;2022-12-07T07:47:47;96950;;;1.8;87.5
68489;BME280;55481;48.764;8.936;2022-12-07T07:50:18;96960;;;1.8;87.5
68489;BME280;55481;48.764;8.936;2022-12-07T07:58:03;96950;;;2;87.5
68489;BME280;55481;48.764;8.936;2022-12-07T08:02:58;96960;;;2.3;87.5
68489;BME280;55481;48.764;8.936;2022-12-07T08:05:27;96960;;;2.4;87.5
68489;BME280;55481;48.764;8.936;2022-12-07T08:10:21;96960;;;2.5;87
68489;BME280;55481;48.764;8.936;2022-12-07T08:12:52;96960;;;2.5;87
68489;BME280;55481;48.764;8.936;2022-12-07T08:15:25;96970;;;2.4;87
68489;BME280;55481;48.764;8.936;2022-12-07T08:17:54;96970;;;2.5;87
68489;BME280;55481;48.764;8.936;2022-12-07T08:20:32;96970;;;2.5;87
68489;BME280;55481;48.764;8.936;2022-12-07T08:25:39;96970;;;2.3;87.5
68489;BME280;55481;48.764;8.936;2022-12-07T08:28:16;96970;;;2.5;87.5
68489;BME280;55481;48.764;8.936;2022-12-07T08:33:03;96960;;;2.6;87.5
68489;BME280;55481;48.764;8.936;2022-12-07T08:35:40;96970;;;2.7;87.5
68489;BME280;55481;48.764;8.936;2022-12-07T08:37:59;96980;;;2.9;87.5
68489;BME280;55481;48.764;8.936;2022-12-07T08:40:23;96980;;;2.8;87
68489;BME280;55481;48.764;8.936;2022-12-07T08:42:53;96980;;;2.9;87
68489;BME280;55481;48.764;8.936;2022-12-07T08:50:25;96980;;;2.8;87.5
68489;BME280;55481;48.764;8.936;2022-12-07T08:52:56;96980;;;2.9;87.5
68489;BME280;55481;48.764;8.936;2022-12-07T08:55:27;96980;;;2.9;87.5
68489;BME280;55481;48.764;8.936;2022-12-07T08:57:58;96980;;;2.9;87.5
68489;BME280;55481;48.764;8.936;2022-12-07T09:00:29;96980;;;3;87.5
68489;BME280;55481;48.764;8.936;2022-12-07T09:03:06;96980;;;3.1;87.5
68489;BME280;55481;48.764;8.936;2022-12-07T09:05:37;96980;;;3.1;87.5
68489;BME280;55481;48.764;8.936;2022-12-07T09:08:08;96970;;;3.1;87.5
68489;BME280;55481;48.764;8.936;2022-12-07T09:13:06;96970;;;3.1;87.5
68489;BME280;55481;48.764;8.936;2022-12-07T09:15:33;96970;;;3.1;87.5
68489;BME280;55481;48.764;8.936;2022-12-07T09:18:05;96970;;;3.1;87.5
68489;BME280;55481;48.764;8.936;2022-12-07T09:25:37;96970;;;3.2;87.5
68489;BME280;55481;48.764;8.936;2022-12-07T09:28:08;96970;;;3.3;87.5
68489;BME280;55481;48.764;8.936;2022-12-07T09:33:15;96970;;;3.3;87.5
68489;BME280;55481;48.764;8.936;2022-12-07T09:35:46;96970;;;3.3;87.5
68489;BME280;55481;48.764;8.936;2022-12-07T09:38:17;96970;;;3.3;87.5
68489;BME280;55481;48.764;8.936;2022-12-07T09:40:47;96970;;;3.4;87.5
68489;BME280;55481;48.764;8.936;2022-12-07T09:43:12;96970;;;3.5;87.5
68489;BME280;55481;48.764;8.936;2022-12-07T09:45:42;96970;;;3.6;87
68489;BME280;55481;48.764;8.936;2022-12-07T09:50:46;96970;;;4.1;87
68489;BME280;55481;48.764;8.936;2022-12-07T09:53:18;96960;;;3.9;87
68489;BME280;55481;48.764;8.936;2022-12-07T09:55:46;96960;;;4;87
68489;BME280;55481;48.764;8.936;2022-12-07T09:58:19;96960;;;3.9;87
68489;BME280;55481;48.764;8.936;2022-12-07T10:00:47;96950;;;3.7;87
68489;BME280;55481;48.764;8.936;2022-12-07T10:03:18;96950;;;3.6;87
68489;BME280;55481;48.764;8.936;2022-12-07T10:13:47;96950;;;3.9;87.5
68489;BME280;55481;48.764;8.936;2022-12-07T10:16:05;96940;;;3.9;87.5
68489;BME280;55481;48.764;8.936;2022-12-07T10:18:35;96940;;;4;87
68489;BME280;55481;48.764;8.936;2022-12-07T10:23:27;96930;;;4;87.5
68489;BME280;55481;48.764;8.936;2022-12-07T10:25:59;96940;;;3.8;87
68489;BME280;55481;48.764;8.936;2022-12-07T10:28:33;96930;;;3.8;87.5
68489;BME280;55481;48.764;8.936;2022-12-07T10:36:17;96930;;;4.2;87.5
68489;BME280;55481;48.764;8.936;2022-12-07T10:41:09;96930;;;4.2;87
68489;BME280;55481;48.764;8.936;2022-12-07T10:43:46;96930;;;4.2;87
68489;BME280;55481;48.764;8.936;2022-12-07T10:49:08;96920;;;4.4;87
68489;BME280;55481;48.764;8.936;2022-12-07T10:51:22;96920;;;4.3;87
68489;BME280;55481;48.764;8.936;2022-12-07T10:53:44;96920;;;4.4;87
68489;BME280;55481;48.764;8.936;2022-12-07T10:56:17;96910;;;4.3;87
68489;BME280;55481;48.764;8.936;2022-12-07T10:58:47;96910;;;4.2;87
68489;BME280;55481;48.764;8.936;2022-12-07T11:01:23;96910;;;4.2;87
68489;BME280;55481;48.764;8.936;2022-12-07T11:08:40;96900;;;4.4;87.5
68489;BME280;55481;48.764;8.936;2022-12-07T11:11:13;96890;;;4.4;87.5
68489;BME280;55481;48.764;8.936;2022-12-07T11:13:44;96890;;;4.3;87.5
68489;BME280;55481;48.764;8.936;2022-12-07T11:16:47;96890;;;4.4;87.5
68489;BME280;55481;48.764;8.936;2022-12-07T11:21:30;96890;;;4.2;87.5
68489;BME280;55481;48.764;8.936;2022-12-07T11:23:48;96890;;;4.2;87.5
68489;BME280;55481;48.764;8.936;2022-12-07T11:26:25;96880;;;4.3;87.5
68489;BME280;55481;48.764;8.936;2022-12-07T11:36:33;96870;;;4.3;87.5
68489;BME280;55481;48.764;8.936;2022-12-07T11:38:55;96880;;;4.2;87.5
68489;BME280;55481;48.764;8.936;2022-12-07T11:41:27;96870;;;4.2;87.5
68489;BME280;55481;48.764;8.936;2022-12-07T11:46:18;96870;;;4.2;87.5
68489;BME280;55481;48.764;8.936;2022-12-07T11:48:51;96870;;;4.1;87.5
68489;BME280;55481;48.764;8.936;2022-12-07T11:51:27;96870;;;4.1;87.5
68489;BME280;55481;48.764;8.936;2022-12-07T11:53:59;96870;;;4;87.5
68489;BME280;55481;48.764;8.936;2022-12-07T11:58:55;96860;;;4;87.5
68489;BME280;55481;48.764;8.936;2022-12-07T12:01:28;96860;;;4;87.5
68489;BME280;55481;48.764;8.936;2022-12-07T12:03:58;96850;;;4.1;87.5
68489;BME280;55481;48.764;8.936;2022-12-07T12:09:09;96860;;;4.1;87.5
68489;BME280;55481;48.764;8.936;2022-12-07T12:11:38;96860;;;4.1;87
68489;BME280;55481;48.764;8.936;2022-12-07T12:14:33;96850;;;4.2;87
68489;BME280;55481;48.764;8.936;2022-12-07T12:16:38;96850;;;4.1;87
68489;BME280;55481;48.764;8.936;2022-12-07T12:19:11;96860;;;4;87
68489;BME280;55481;48.764;8.936;2022-12-07T12:21:36;96860;;;4;87
68489;BME280;55481;48.764;8.936;2022-12-07T12:31:40;96850;;;3.7;87
68489;BME280;55481;48.764;8.936;2022-12-07T12:34:42;96850;;;3.7;87
68489;BME280;55481;48.764;8.936;2022-12-07T12:39:14;96850;;;3.7;87
68489;BME280;55481;48.764;8.936;2022-12-07T12:44:38;96850;;;3.6;87.5
68489;BME280;55481;48.764;8.936;2022-12-07T12:46:37;96850;;;3.6;87
68489;BME280;55481;48.764;8.936;2022-12-07T12:49:30;96850;;;3.5;87
68489;BME280;55481;48.764;8.936;2022-12-07T12:51:52;96840;;;3.6;87.5
68489;BME280;55481;48.764;8.936;2022-12-07T12:54:28;96840;;;3.7;87
68489;BME280;55481;48.764;8.936;2022-12-07T12:56:47;96840;;;3.8;87
68489;BME280;55481;48.764;8.936;2022-12-07T12:59:28;96840;;;3.6;87
68489;BME280;55481;48.764;8.936;2022-12-07T13:01:45;96840;;;3.6;87.5
68489;BME280;55481;48.764;8.936;2022-12-07T13:09:17;96830;;;3.4;87.5
68489;BME280;55481;48.764;8.936;2022-12-07T13:11:46;96830;;;3.5;87.5
68489;BME280;55481;48.764;8.936;2022-12-07T13:14:35;96820;;;3.6;87.5
68489;BME280;55481;48.764;8.936;2022-12-07T13:16:42;96820;;;3.8;87.5
68489;BME280;55481;48.764;8.936;2022-12-07T13:21:44;96820;;;3.6;87.5
68489;BME280;55481;48.764;8.936;2022-12-07T13:24:15;96810;;;3.4;87.5
68489;BME280;55481;48.764;8.936;2022-12-07T13:26:45;96810;;;3.4;87.5
68489;BME280;55481;48.764;8.936;2022-12-07T13:29:17;96810;;;3.3;87.5
68489;BME280;55481;48.764;8.936;2022-12-07T13:31:54;96810;;;3.3;87.5
68489;BME280;55481;48.764;8.936;2022-12-07T13:34:31;96810;;;3.4;87.5
68489;BME280;55481;48.764;8.936;2022-12-07T13:36:55;96810;;;3.5;87.5
68489;BME280;55481;48.764;8.936;2022-12-07T13:39:27;96810;;;3.6;88
68489;BME280;55481;48.764;8.936;2022-12-07T13:44:23;96800;;;4.1;87.5
68489;BME280;55481;48.764;8.936;2022-12-07T13:46:55;96800;;;4.1;87
68489;BME280;55481;48.764;8.936;2022-12-07T13:49:25;96790;;;4;87
68489;BME280;55481;48.764;8.936;2022-12-07T13:52:14;96790;;;4.4;87.5
68489;BME280;55481;48.764;8.936;2022-12-07T13:54:25;96780;;;4.6;86.5
68489;BME280;55481;48.764;8.936;2022-12-07T13:56:57;96790;;;4.4;86.5
68489;BME280;55481;48.764;8.936;2022-12-07T13:59:27;96790;;;4.3;86.5
68489;BME280;55481;48.764;8.936;2022-12-07T14:01:58;96790;;;4.2;86.5
68489;BME280;55481;48.764;8.936;2022-12-07T14:04:34;96790;;;4.1;87
68489;BME280;55481;48.764;8.936;2022-12-07T14:06:53;96790;;;4.1;87
68489;BME280;55481;48.764;8.936;2022-12-07T14:14:26;96790;;;4;87.5
68489;BME280;55481;48.764;8.936;2022-12-07T14:16:59;96790;;;4;87.5
68489;BME280;55481;48.764;8.936;2022-12-07T14:19:59;96780;;;4.2;87.5
68489;BME280;55481;48.764;8.936;2022-12-07T14:22:06;96790;;;4.2;87
68489;BME280;55481;48.764;8.936;2022-12-07T14:24:30;96790;;;3.9;87
68489;BME280;55481;48.764;8.936;2022-12-07T14:27:00;96780;;;4;87
68489;BME280;55481;48.764;8.936;2022-12-07T14:32:16;96780;;;3.9;87
68489;BME280;55481;48.764;8.936;2022-12-07T14:34:38;96790;;;3.7;87
68489;BME280;55481;48.764;8.936;2022-12-07T14:37:09;96790;;;3.8;87
68489;BME280;55481;48.764;8.936;2022-12-07T14:39:40;96790;;;3.6;87
68489;BME280;55481;48.764;8.936;2022-12-07T14:44:55;96790;;;3.7;87
68489;BME280;55481;48.764;8.936;2022-12-07T14:49:48;96790;;;3.6;87
68489;BME280;55481;48.764;8.936;2022-12-07T14:52:21;96800;;;3.7;87
68489;BME280;55481;48.764;8.936;2022-12-07T14:57:20;96800;;;3.4;87
68489;BME280;55481;48.764;8.936;2022-12-07T14:59:44;96810;;;3.3;87
68489;BME280;55481;48.764;8.936;2022-12-07T15:02:15;96810;;;3.3;87
68489;BME280;55481;48.764;8.936;2022-12-07T15:04:46;96810;;;3.2;87
68489;BME280;55481;48.764;8.936;2022-12-07T15:07:23;96810;;;3.4;87
68489;BME280;55481;48.764;8.936;2022-12-07T15:17:39;96810;;;3;87
68489;BME280;55481;48.764;8.936;2022-12-07T15:19:56;96810;;;3;87
68489;BME280;55481;48.764;8.936;2022-12-07T15:22:40;96810;;;3;87
68489;BME280;55481;48.764;8.936;2022-12-07T15:24:57;96810;;;3;87
68489;BME280;55481;48.764;8.936;2022-12-07T15:27:27;96810;;;2.8;87
68489;BME280;55481;48.764;8.936;2022-12-07T15:29:53;96800;;;2.7;87
68489;BME280;55481;48.764;8.936;2022-12-07T15:32:34;96800;;;2.7;87
68489;BME280;55481;48.764;8.936;2022-12-07T15:35:00;96810;;;2.6;87
68489;BME280;55481;48.764;8.936;2022-12-07T15:39:55;96810;;;2.5;87
68489;BME280;55481;48.764;8.936;2022-12-07T15:45:09;96800;;;2.5;87
68489;BME280;55481;48.764;8.936;2022-12-07T15:47:35;96800;;;2.4;87
68489;BME280;55481;48.764;8.936;2022-12-07T15:49:57;96800;;;2.4;87
68489;BME280;55481;48.764;8.936;2022-12-07T15:52:27;96790;;;2.2;87.5
68489;BME280;55481;48.764;8.936;2022-12-07T15:54:59;96790;;;2.2;87.5
68489;BME280;55481;48.764;8.936;2022-12-07T15:57:39;96790;;;2.3;87.5
68489;BME280;55481;48.764;8.936;2022-12-07T16:05:05;96800;;;2.1;87.5
68489;BME280;55481;48.764;8.936;2022-12-07T16:07:34;96800;;;2.1;87.5
68489;BME280;55481;48.764;8.936;2022-12-07T16:10:05;96790;;;2.1;87.5
68489;BME280;55481;48.764;8.936;2022-12-07T16:12:35;96790;;;2;87.5
68489;BME280;55481;48.764;8.936;2022-12-07T16:15:13;96790;;;2;87.5
68489;BME280;55481;48.764;8.936;2022-12-07T16:17:38;96790;;;2.1;87.5
68489;BME280;55481;48.764;8.936;2022-12-07T16:22:39;96780;;;2.1;87.5
68489;BME280;55481;48.764;8.936;2022-12-07T16:25:10;96780;;;2;87.5
68489;BME280;55481;48.764;8.936;2022-12-07T16:27:48;96780;;;2.1;87.5
68489;BME280;55481;48.764;8.936;2022-12-07T16:30:19;96780;;;2.2;87.5
68489;BME280;55481;48.764;8.936;2022-12-07T16:37:52;96780;;;2.2;87.5
68489;BME280;55481;48.764;8.936;2022-12-07T16:45:16;96770;;;2;87
68489;BME280;55481;48.764;8.936;2022-12-07T16:47:48;96760;;;1.9;87
68489;BME280;55481;48.764;8.936;2022-12-07T16:50:20;96760;;;1.9;87
68489;BME280;55481;48.764;8.936;2022-12-07T16:52:49;96760;;;1.9;87
68489;BME280;55481;48.764;8.936;2022-12-07T17:02:45;96740;;;1.9;87
68489;BME280;55481;48.764;8.936;2022-12-07T17:05:17;96750;;;1.7;87
68489;BME280;55481;48.764;8.936;2022-12-07T17:07:47;96750;;;1.8;87
68489;BME280;55481;48.764;8.936;2022-12-07T17:15:20;96740;;;2;87
68489;BME280;55481;48.764;8.936;2022-12-07T17:17:52;96740;;;2.1;87
68489;BME280;55481;48.764;8.936;2022-12-07T17:20:23;96740;;;1.9;87
68489;BME280;55481;48.764;8.936;2022-12-07T17:25:37;96740;;;1.9;87.5
68489;BME280;55481;48.764;8.936;2022-12-07T17:28:00;96740;;;1.9;87.5
68489;BME280;55481;48.764;8.936;2022-12-07T17:30:30;96730;;;2;87.5
68489;BME280;55481;48.764;8.936;2022-12-07T17:33:05;96730;;;2;87.5
68489;BME280;55481;48.764;8.936;2022-12-07T17:35:39;96730;;;2;87.5
68489;BME280;55481;48.764;8.936;2022-12-07T17:38:09;96730;;;1.9;87.5
68489;BME280;55481;48.764;8.936;2022-12-07T17:43:03;96730;;;1.9;87
68489;BME280;55481;48.764;8.936;2022-12-07T17:45:35;96730;;;1.8;87
68489;BME280;55481;48.764;8.936;2022-12-07T17:48:07;96730;;;1.7;87.5
68489;BME280;55481;48.764;8.936;2022-12-07T17:50:38;96720;;;1.7;87.5
68489;BME280;55481;48.764;8.936;2022-12-07T17:55:31;96730;;;1.7;87.5
68489;BME280;55481;48.764;8.936;2022-12-07T17:58:02;96730;;;1.7;87.5
68489;BME280;55481;48.764;8.936;2022-12-07T18:00:33;96730;;;1.8;87.5
68489;BME280;55481;48.764;8.936;2022-12-07T18:03:04;96720;;;1.9;87
68489;BME280;55481;48.764;8.936;2022-12-07T18:05:36;96720;;;1.9;87
68489;BME280;55481;48.764;8.936;2022-12-07T18:08:05;96720;;;1.8;87
68489;BME280;55481;48.764;8.936;2022-12-07T18:10:36;96720;;;1.8;87
68489;BME280;55481;48.764;8.936;2022-12-07T18:13:09;96720;;;1.8;87
68489;BME280;55481;48.764;8.936;2022-12-07T18:15:40;96720;;;2;87
68489;BME280;55481;48.764;8.936;2022-12-07T18:18:08;96710;;;1.8;86.5
68489;BME280;55481;48.764;8.936;2022-12-07T18:20:39;96720;;;1.5;86.5
68489;BME280;55481;48.764;8.936;2022-12-07T18:23:10;96710;;;1.4;87
68489;BME280;55481;48.764;8.936;2022-12-07T18:30:42;96720;;;1.1;86.5
68489;BME280;55481;48.764;8.936;2022-12-07T18:38:23;96710;;;1;86.5
68489;BME280;55481;48.764;8.936;2022-12-07T18:40:52;96720;;;0.9;86.5
68489;BME280;55481;48.764;8.936;2022-12-07T18:43:29;96720;;;0.9;86
68489;BME280;55481;48.764;8.936;2022-12-07T18:45:54;96720;;;0.9;86
68489;BME280;55481;48.764;8.936;2022-12-07T18:48:25;96710;;;0.8;86
68489;BME280;55481;48.764;8.936;2022-12-07T18:51:03;96720;;;0.9;86.5
68489;BME280;55481;48.764;8.936;2022-12-07T18:53:21;96710;;;0.9;86.5
68489;BME280;55481;48.764;8.936;2022-12-07T19:00:53;96710;;;0.9;87
68489;BME280;55481;48.764;8.936;2022-12-07T19:03:22;96710;;;0.8;87
68489;BME280;55481;48.764;8.936;2022-12-07T19:05:57;96720;;;0.8;87
68489;BME280;55481;48.764;8.936;2022-12-07T19:08:24;96720;;;0.8;87.5
68489;BME280;55481;48.764;8.936;2022-12-07T19:10:54;96710;;;1;87.5
68489;BME280;55481;48.764;8.936;2022-12-07T19:13:32;96710;;;1;87.5
68489;BME280;55481;48.764;8.936;2022-12-07T19:16:05;96710;;;1;87.5
68489;BME280;55481;48.764;8.936;2022-12-07T19:18:34;96710;;;1.2;87
68489;BME280;55481;48.764;8.936;2022-12-07T19:21:05;96720;;;1.2;87
68489;BME280;55481;48.764;8.936;2022-12-07T19:23:42;96710;;;1.1;87
68489;BME280;55481;48.764;8.936;2022-12-07T19:26:12;96710;;;1.1;87
68489;BME280;55481;48.764;8.936;2022-12-07T19:28:50;96700;;;1.1;87
68489;BME280;55481;48.764;8.936;2022-12-07T19:33:37;96700;;;1.1;87
68489;BME280;55481;48.764;8.936;2022-12-07T19:36:14;96700;;;1.2;87
68489;BME280;55481;48.764;8.936;2022-12-07T19:38:38;96710;;;1.2;87
68489;BME280;55481;48.764;8.936;2022-12-07T19:41:05;96710;;;1.2;87
68489;BME280;55481;48.764;8.936;2022-12-07T19:43:35;96710;;;1.2;87
68489;BME280;55481;48.764;8.936;2022-12-07T19:46:05;96710;;;1.2;87
68489;BME280;55481;48.764;8.936;2022-12-07T19:51:10;96700;;;1.3;87.5
68489;BME280;55481;48.764;8.936;2022-12-07T19:53:37;96690;;;1.4;87
68489;BME280;55481;48.764;8.936;2022-12-07T19:56:13;96690;;;1.5;87
68489;BME280;55481;48.764;8.936;2022-12-07T20:01:16;96690;;;1.5;86.5
68489;BME280;55481;48.764;8.936;2022-12-07T20:03:46;96690;;;1.6;86.5
68489;BME280;55481;48.764;8.936;2022-12-07T20:06:18;96690;;;1.6;86.5
68489;BME280;55481;48.764;8.936;2022-12-07T20:08:45;96690;;;1.6;86.5